Station Historical Data
Daily Summary for June 28, 2012 Units:  English    Metric   Both
« Previous Day
Next Day »
Daily Weekly Monthly Yearly Custom
  High: Low: Average:
Temperature: 99.8 °F 62.6 °F 83.2 °F
Dew Point: 65.3 °F 54.3 °F 60.1 °F
Humidity: 89% 24% 50%
Wind Speed: 10.0mph 0.0mph 2.3mph
Wind Gust: 12.0mph - -
Wind- - SW
Pressure: 30.00 in 29.91 in -
Precipitation: 0.00 in    
Historical Graphs
 
 
Tabular Data for June 28, 2012
Time Temperature Dew Point Pressure Wind Wind Speed Wind Gust Humidity Rainfall Rate (Hourly) Conditions
00:00 71.8 °F 60.7 °F 29.94 in Calm   1.0 mph 68% 0.00 in
00:05 71.9 °F 61.2 °F 29.94 in WNW 1.0 mph 1.0 mph 69% 0.00 in
00:10 71.7 °F 59.8 °F 29.94 in WNW 1.0 mph 1.0 mph 66% 0.00 in
00:15 72.5 °F 60.1 °F 29.94 in Calm   1.0 mph 65% 0.00 in
00:20 72.6 °F 59.3 °F 29.94 in Calm     63% 0.00 in
00:25 72.7 °F 59.4 °F 29.94 in WSW 1.0 mph 1.0 mph 63% 0.00 in
00:30 73.1 °F 58.9 °F 29.94 in Calm     61% 0.00 in
00:35 73.3 °F 59.0 °F 29.94 in Calm     61% 0.00 in
00:40 73.3 °F 58.6 °F 29.94 in Calm     60% 0.00 in
00:45 73.3 °F 58.1 °F 29.93 in Calm     59% 0.00 in
00:50 73.7 °F 58.0 °F 29.94 in Calm     58% 0.00 in
00:55 74.0 °F 57.8 °F 29.93 in Calm     57% 0.00 in
01:00 74.4 °F 58.2 °F 29.93 in Calm     57% 0.00 in
01:05 74.1 °F 57.4 °F 29.93 in Calm     56% 0.00 in
01:10 73.5 °F 57.3 °F 29.93 in Calm     57% 0.00 in
01:15 73.5 °F 57.8 °F 29.93 in Calm     58% 0.00 in
01:20 73.7 °F 57.5 °F 29.93 in Calm     57% 0.00 in
01:25 73.9 °F 57.7 °F 29.93 in Calm     57% 0.00 in
01:30 74.2 °F 57.5 °F 29.93 in SE 1.0 mph 1.0 mph 56% 0.00 in
01:35 74.1 °F 57.9 °F 29.93 in Calm   1.0 mph 57% 0.00 in
01:41 73.7 °F 57.5 °F 29.93 in Calm     57% 0.00 in
01:46 73.6 °F 57.0 °F 29.93 in Calm     56% 0.00 in
01:51 73.7 °F 57.0 °F 29.93 in ESE 1.0 mph 1.0 mph 56% 0.00 in
01:56 73.8 °F 58.1 °F 29.93 in East 3.0 mph 6.0 mph 58% 0.00 in
02:01 72.4 °F 58.7 °F 29.93 in Calm   3.0 mph 62% 0.00 in
02:06 71.0 °F 59.1 °F 29.93 in East 4.0 mph 4.0 mph 66% 0.00 in
02:11 70.5 °F 59.4 °F 29.93 in East 1.0 mph 2.0 mph 68% 0.00 in
02:16 69.8 °F 60.0 °F 29.93 in ESE 1.0 mph 2.0 mph 71% 0.00 in
02:21 69.5 °F 60.1 °F 29.93 in Calm   1.0 mph 72% 0.00 in
02:26 69.3 °F 59.5 °F 29.93 in Calm     71% 0.00 in
02:31 69.0 °F 60.4 °F 29.93 in SE 1.0 mph 1.0 mph 74% 0.00 in
02:36 68.7 °F 60.1 °F 29.93 in Calm   1.0 mph 74% 0.00 in
02:41 68.6 °F 60.0 °F 29.93 in Calm   1.0 mph 74% 0.00 in
02:46 68.5 °F 59.5 °F 29.93 in Calm     73% 0.00 in
02:51 68.3 °F 59.3 °F 29.92 in Calm     73% 0.00 in
02:56 67.9 °F 59.3 °F 29.92 in Calm     74% 0.00 in
03:01 67.7 °F 59.5 °F 29.92 in Calm     75% 0.00 in
03:06 67.7 °F 59.5 °F 29.92 in Calm     75% 0.00 in
03:11 67.6 °F 59.8 °F 29.92 in SE 1.0 mph 1.0 mph 76% 0.00 in
03:16 67.1 °F 59.7 °F 29.92 in Calm     77% 0.00 in
03:21 67.3 °F 59.1 °F 29.92 in Calm   1.0 mph 75% 0.00 in
03:26 67.7 °F 59.1 °F 29.92 in Calm     74% 0.00 in
03:31 67.6 °F 59.0 °F 29.92 in Calm     74% 0.00 in
03:36 67.2 °F 59.8 °F 29.92 in Calm   1.0 mph 77% 0.00 in
03:42 67.1 °F 59.3 °F 29.92 in Calm   1.0 mph 76% 0.00 in
03:47 67.2 °F 59.4 °F 29.92 in Calm   1.0 mph 76% 0.00 in
03:52 67.0 °F 58.8 °F 29.92 in Calm     75% 0.00 in
03:57 66.9 °F 58.3 °F 29.92 in Calm     74% 0.00 in
04:02 67.0 °F 58.1 °F 29.92 in Calm   1.0 mph 73% 0.00 in
04:07 67.1 °F 58.9 °F 29.92 in Calm     75% 0.00 in
04:12 66.9 °F 59.1 °F 29.93 in Calm     76% 0.00 in
04:17 66.9 °F 59.1 °F 29.93 in Calm     76% 0.00 in
04:22 66.8 °F 59.0 °F 29.93 in Calm     76% 0.00 in
04:27 66.5 °F 58.7 °F 29.93 in Calm     76% 0.00 in
04:32 66.3 °F 59.2 °F 29.93 in Calm     78% 0.00 in
04:37 66.1 °F 59.0 °F 29.93 in Calm     78% 0.00 in
04:42 66.2 °F 58.8 °F 29.93 in Calm   1.0 mph 77% 0.00 in
04:47 66.6 °F 58.1 °F 29.93 in Calm     74% 0.00 in
04:52 66.6 °F 58.8 °F 29.93 in Calm     76% 0.00 in
04:57 66.1 °F 58.7 °F 29.93 in Calm     77% 0.00 in
05:02 65.6 °F 58.2 °F 29.93 in Calm     77% 0.00 in
05:07 65.8 °F 58.8 °F 29.93 in SE 1.0 mph 1.0 mph 78% 0.00 in
05:12 66.2 °F 58.0 °F 29.94 in SE 1.0 mph 1.0 mph 75% 0.00 in
05:17 66.6 °F 58.1 °F 29.94 in SE 1.0 mph 1.0 mph 74% 0.00 in
05:22 66.7 °F 58.2 °F 29.94 in Calm   1.0 mph 74% 0.00 in
05:27 66.5 °F 58.0 °F 29.94 in Calm     74% 0.00 in
05:32 66.4 °F 57.9 °F 29.94 in Calm     74% 0.00 in
05:37 65.8 °F 57.7 °F 29.94 in Calm     75% 0.00 in
05:42 65.6 °F 57.8 °F 29.94 in Calm     76% 0.00 in
05:47 65.4 °F 57.7 °F 29.94 in Calm     76% 0.00 in
05:52 65.3 °F 58.3 °F 29.94 in Calm     78% 0.00 in
05:57 65.7 °F 59.4 °F 29.94 in Calm     80% 0.00 in
06:02 66.6 °F 60.2 °F 29.94 in Calm     80% 0.00 in
06:07 67.1 °F 60.0 °F 29.95 in Calm     78% 0.00 in
06:12 65.2 °F 58.5 °F 29.95 in Calm     79% 0.00 in
06:17 63.9 °F 58.6 °F 29.96 in Calm     83% 0.00 in
06:22 63.3 °F 58.4 °F 29.96 in Calm     84% 0.00 in
06:27 63.1 °F 58.8 °F 29.96 in Calm     86% 0.00 in
06:32 63.1 °F 58.5 °F 29.96 in Calm     85% 0.00 in
06:37 62.8 °F 58.6 °F 29.96 in Calm     86% 0.00 in
06:42 62.6 °F 58.4 °F 29.96 in Calm     86% 0.00 in
06:47 62.6 °F 59.0 °F 29.97 in Calm     88% 0.00 in
06:52 62.6 °F 59.3 °F 29.97 in Calm     89% 0.00 in
06:57 62.7 °F 59.4 °F 29.97 in Calm     89% 0.00 in
07:02 63.1 °F 59.5 °F 29.97 in Calm     88% 0.00 in
07:07 64.0 °F 59.7 °F 29.97 in Calm     86% 0.00 in
07:12 64.9 °F 60.3 °F 29.97 in Calm     85% 0.00 in
07:17 65.8 °F 60.5 °F 29.97 in Calm     83% 0.00 in
07:22 66.9 °F 60.9 °F 29.98 in Calm     81% 0.00 in
07:27 67.0 °F 61.0 °F 29.98 in Calm     81% 0.00 in
07:32 67.7 °F 61.3 °F 29.98 in Calm     80% 0.00 in
07:37 68.4 °F 61.3 °F 29.98 in Calm     78% 0.00 in
07:42 69.0 °F 61.5 °F 29.98 in Calm     77% 0.00 in
07:47 69.1 °F 62.7 °F 29.98 in Calm     80% 0.00 in
07:52 70.0 °F 63.2 °F 29.98 in Calm     79% 0.00 in
07:57 71.5 °F 63.2 °F 29.98 in Calm     75% 0.00 in
08:02 72.5 °F 64.5 °F 29.98 in Calm     76% 0.00 in
08:07 73.4 °F 65.0 °F 29.99 in Calm   1.0 mph 75% 0.00 in
08:12 74.0 °F 63.6 °F 29.99 in SSE 2.0 mph 2.0 mph 70% 0.00 in
08:18 74.6 °F 65.0 °F 29.99 in SE 1.0 mph 3.0 mph 72% 0.00 in
08:22 75.2 °F 65.2 °F 29.99 in Calm     71% 0.00 in
08:28 75.8 °F 64.1 °F 29.99 in SSE 2.0 mph 2.0 mph 67% 0.00 in
08:33 76.2 °F 64.0 °F 29.99 in SE 2.0 mph 2.0 mph 66% 0.00 in
08:38 76.9 °F 63.8 °F 29.99 in SE 1.0 mph 3.0 mph 64% 0.00 in
08:43 77.8 °F 64.7 °F 29.99 in SW 1.0 mph 2.0 mph 64% 0.00 in
08:48 78.5 °F 64.9 °F 29.99 in SSW 1.0 mph 1.0 mph 63% 0.00 in
08:53 79.6 °F 65.0 °F 29.99 in SE 1.0 mph 2.0 mph 61% 0.00 in
08:58 80.4 °F 64.8 °F 29.99 in SE 3.0 mph 3.0 mph 59% 0.00 in
09:03 80.7 °F 63.0 °F 29.99 in SE 3.0 mph 6.0 mph 55% 0.00 in
09:08 80.9 °F 62.2 °F 30.00 in SSE 2.0 mph 4.0 mph 53% 0.00 in
09:13 81.2 °F 61.9 °F 30.00 in SE 2.0 mph 4.0 mph 52% 0.00 in
09:18 81.6 °F 62.3 °F 30.00 in South 4.0 mph 4.0 mph 52% 0.00 in
09:23 82.1 °F 61.1 °F 30.00 in SSE 3.0 mph 6.0 mph 49% 0.00 in
09:28 82.4 °F 61.3 °F 30.00 in SSE 4.0 mph 6.0 mph 49% 0.00 in
09:33 82.8 °F 61.7 °F 30.00 in South 3.0 mph 4.0 mph 49% 0.00 in
09:38 83.3 °F 59.8 °F 30.00 in SE 4.0 mph 5.0 mph 45% 0.00 in
09:43 83.8 °F 60.8 °F 30.00 in South 4.0 mph 5.0 mph 46% 0.00 in
09:48 84.0 °F 62.2 °F 30.00 in SSW 1.0 mph 4.0 mph 48% 0.00 in
09:53 84.1 °F 61.7 °F 30.00 in SSW 3.0 mph 4.0 mph 47% 0.00 in
09:58 84.3 °F 63.1 °F 30.00 in SW 3.0 mph 4.0 mph 49% 0.00 in
10:03 84.5 °F 63.8 °F 30.00 in SW 2.0 mph 2.0 mph 50% 0.00 in
10:08 84.7 °F 64.6 °F 30.00 in SSW 4.0 mph 4.0 mph 51% 0.00 in
10:13 85.3 °F 64.0 °F 30.00 in SW 2.0 mph 4.0 mph 49% 0.00 in
10:18 85.6 °F 63.7 °F 30.00 in SSW 3.0 mph 4.0 mph 48% 0.00 in
10:23 85.7 °F 64.4 °F 30.00 in WSW 4.0 mph 5.0 mph 49% 0.00 in
10:28 85.9 °F 64.0 °F 30.00 in WSW 3.0 mph 4.0 mph 48% 0.00 in
10:33 86.4 °F 63.8 °F 30.00 in WSW 3.0 mph 4.0 mph 47% 0.00 in
10:38 86.6 °F 62.1 °F 30.00 in SW 5.0 mph 6.0 mph 44% 0.00 in
10:43 87.0 °F 62.5 °F 30.00 in West 2.0 mph 6.0 mph 44% 0.00 in
10:48 87.4 °F 62.2 °F 30.00 in WSW 4.0 mph 6.0 mph 43% 0.00 in
10:53 87.9 °F 62.6 °F 30.00 in SW 3.0 mph 6.0 mph 43% 0.00 in
10:58 88.4 °F 63.7 °F 30.00 in SSW 4.0 mph 5.0 mph 44% 0.00 in
11:03 88.8 °F 64.1 °F 30.00 in SSW 3.0 mph 4.0 mph 44% 0.00 in
11:08 89.2 °F 63.8 °F 30.00 in West 2.0 mph 7.0 mph 43% 0.00 in
11:13 89.5 °F 64.1 °F 30.00 in WSW 4.0 mph 7.0 mph 43% 0.00 in
11:18 89.4 °F 63.3 °F 30.00 in SSW 6.0 mph 8.0 mph 42% 0.00 in
11:23 89.8 °F 64.3 °F 30.00 in WSW 3.0 mph 8.0 mph 43% 0.00 in
11:28 90.1 °F 65.3 °F 30.00 in SW 3.0 mph 6.0 mph 44% 0.00 in
11:33 90.6 °F 64.4 °F 30.00 in SSW 4.0 mph 8.0 mph 42% 0.00 in
11:39 90.7 °F 61.6 °F 30.00 in SW 4.0 mph 10.0 mph 38% 0.00 in
11:44 90.7 °F 60.9 °F 30.00 in SSW 2.0 mph 9.0 mph 37% 0.00 in
11:49 90.8 °F 59.4 °F 30.00 in WSW 6.0 mph 12.0 mph 35% 0.00 in
11:54 90.7 °F 59.3 °F 30.00 in West 5.0 mph 12.0 mph 35% 0.00 in
11:59 90.8 °F 61.0 °F 30.00 in WNW 7.0 mph 11.0 mph 37% 0.00 in
12:04 91.0 °F 62.6 °F 30.00 in West 6.0 mph 9.0 mph 39% 0.00 in
12:09 91.0 °F 61.1 °F 30.00 in WSW 8.0 mph 10.0 mph 37% 0.00 in
12:14 91.2 °F 61.3 °F 30.00 in WNW 6.0 mph 9.0 mph 37% 0.00 in
12:19 91.1 °F 61.2 °F 29.99 in West 4.0 mph 10.0 mph 37% 0.00 in
12:24 91.7 °F 62.5 °F 29.99 in WSW 7.0 mph 10.0 mph 38% 0.00 in
12:29 91.9 °F 61.9 °F 29.99 in WNW 6.0 mph 8.0 mph 37% 0.00 in
12:34 92.1 °F 61.3 °F 29.99 in West 6.0 mph 9.0 mph 36% 0.00 in
12:39 92.1 °F 61.3 °F 29.99 in WNW 8.0 mph 12.0 mph 36% 0.00 in
12:44 91.9 °F 62.7 °F 29.99 in WNW 6.0 mph 6.0 mph 38% 0.00 in
12:49 92.3 °F 61.5 °F 29.99 in WSW 7.0 mph 9.0 mph 36% 0.00 in
12:54 92.7 °F 61.1 °F 29.99 in WSW 3.0 mph 11.0 mph 35% 0.00 in
12:59 92.9 °F 62.0 °F 29.99 in West 3.0 mph 8.0 mph 36% 0.00 in
13:04 93.0 °F 60.5 °F 29.99 in West 5.0 mph 10.0 mph 34% 0.00 in
13:09 93.4 °F 60.9 °F 29.99 in NW 4.0 mph 10.0 mph 34% 0.00 in
13:14 94.0 °F 59.7 °F 29.99 in WNW 5.0 mph 9.0 mph 32% 0.00 in
13:19 93.9 °F 60.5 °F 29.98 in WNW 4.0 mph 7.0 mph 33% 0.00 in
13:24 94.0 °F 58.8 °F 29.98 in WSW 3.0 mph 8.0 mph 31% 0.00 in
13:29 94.5 °F 60.1 °F 29.98 in West 5.0 mph 8.0 mph 32% 0.00 in
13:34 94.8 °F 57.6 °F 29.98 in SW 6.0 mph 9.0 mph 29% 0.00 in
13:39 95.3 °F 56.1 °F 29.98 in WSW 5.0 mph 10.0 mph 27% 0.00 in
13:44 95.4 °F 58.1 °F 29.98 in West 5.0 mph 11.0 mph 29% 0.00 in
13:49 94.9 °F 58.7 °F 29.98 in WNW 7.0 mph 9.0 mph 30% 0.00 in
13:54 94.8 °F 56.7 °F 29.98 in SSW 2.0 mph 8.0 mph 28% 0.00 in
13:59 95.3 °F 58.0 °F 29.97 in WNW 8.0 mph 9.0 mph 29% 0.00 in
14:04 95.4 °F 55.1 °F 29.98 in WNW 6.0 mph 9.0 mph 26% 0.00 in
14:09 95.3 °F 57.1 °F 29.97 in NNW 7.0 mph 9.0 mph 28% 0.00 in
14:14 95.5 °F 57.2 °F 29.97 in WSW 9.0 mph 9.0 mph 28% 0.00 in
14:19 96.1 °F 57.8 °F 29.97 in West 8.0 mph 10.0 mph 28% 0.00 in
14:24 95.9 °F 57.6 °F 29.97 in SW 10.0 mph 10.0 mph 28% 0.00 in
14:29 96.1 °F 58.7 °F 29.97 in West 4.0 mph 8.0 mph 29% 0.00 in
14:34 96.8 °F 57.3 °F 29.97 in West 3.0 mph 7.0 mph 27% 0.00 in
14:39 97.2 °F 57.7 °F 29.97 in WNW 5.0 mph 8.0 mph 27% 0.00 in
14:44 97.0 °F 54.3 °F 29.96 in West 4.0 mph 10.0 mph 24% 0.00 in
14:49 97.1 °F 56.5 °F 29.97 in West 3.0 mph 8.0 mph 26% 0.00 in
14:54 96.9 °F 55.3 °F 29.96 in NNW 7.0 mph 11.0 mph 25% 0.00 in
14:59 96.8 °F 57.3 °F 29.96 in NW 7.0 mph 9.0 mph 27% 0.00 in
15:04 97.3 °F 57.8 °F 29.96 in WNW 3.0 mph 8.0 mph 27% 0.00 in
15:09 97.8 °F 57.1 °F 29.96 in SW 8.0 mph 9.0 mph 26% 0.00 in
15:14 97.5 °F 56.9 °F 29.96 in West 6.0 mph 9.0 mph 26% 0.00 in
15:20 97.4 °F 56.8 °F 29.96 in SW 4.0 mph 10.0 mph 26% 0.00 in
15:25 98.0 °F 58.3 °F 29.95 in WSW 6.0 mph 10.0 mph 27% 0.00 in
15:30 97.9 °F 56.1 °F 29.95 in NW 2.0 mph 7.0 mph 25% 0.00 in
15:35 98.4 °F 55.4 °F 29.95 in West 9.0 mph 10.0 mph 24% 0.00 in
15:40 97.9 °F 56.1 °F 29.95 in SW 3.0 mph 9.0 mph 25% 0.00 in
15:45 98.2 °F 55.3 °F 29.95 in West 6.0 mph 7.0 mph 24% 0.00 in
15:50 98.6 °F 55.6 °F 29.95 in West 8.0 mph 10.0 mph 24% 0.00 in
15:55 98.3 °F 55.3 °F 29.95 in West 6.0 mph 11.0 mph 24% 0.00 in
16:00 98.2 °F 55.3 °F 29.94 in SW 5.0 mph 7.0 mph 24% 0.00 in
16:05 98.3 °F 56.5 °F 29.95 in West 5.0 mph 12.0 mph 25% 0.00 in
16:10 98.7 °F 55.7 °F 29.94 in West 7.0 mph 8.0 mph 24% 0.00 in
16:15 99.0 °F 57.1 °F 29.94 in SSW 3.0 mph 10.0 mph 25% 0.00 in
16:20 99.4 °F 57.4 °F 29.94 in WSW 7.0 mph 7.0 mph 25% 0.00 in
16:25 99.0 °F 57.1 °F 29.94 in WSW 5.0 mph 10.0 mph 25% 0.00 in
16:30 99.0 °F 58.2 °F 29.94 in West 4.0 mph 10.0 mph 26% 0.00 in
16:35 99.0 °F 58.2 °F 29.94 in WSW 6.0 mph 7.0 mph 26% 0.00 in
16:40 99.1 °F 58.2 °F 29.94 in West 4.0 mph 9.0 mph 26% 0.00 in
16:45 98.7 °F 55.7 °F 29.94 in WNW 10.0 mph 11.0 mph 24% 0.00 in
16:50 99.1 °F 58.2 °F 29.93 in NW 5.0 mph 7.0 mph 26% 0.00 in
16:55 98.9 °F 57.0 °F 29.93 in WNW 6.0 mph 9.0 mph 25% 0.00 in
17:00 99.1 °F 57.1 °F 29.93 in WSW 5.0 mph 7.0 mph 25% 0.00 in
17:05 99.1 °F 57.1 °F 29.93 in West 6.0 mph 10.0 mph 25% 0.00 in
17:10 99.0 °F 57.1 °F 29.93 in WSW 5.0 mph 9.0 mph 25% 0.00 in
17:15 99.1 °F 57.1 °F 29.93 in West 3.0 mph 6.0 mph 25% 0.00 in
17:20 99.6 °F 57.6 °F 29.93 in WSW 8.0 mph 11.0 mph 25% 0.00 in
17:25 99.4 °F 57.4 °F 29.93 in SW 8.0 mph 11.0 mph 25% 0.00 in
17:30 99.1 °F 58.2 °F 29.92 in West 1.0 mph 10.0 mph 26% 0.00 in
17:35 99.3 °F 57.3 °F 29.92 in West 3.0 mph 6.0 mph 25% 0.00 in
17:40 99.3 °F 57.3 °F 29.92 in West 3.0 mph 9.0 mph 25% 0.00 in
17:45 99.5 °F 57.5 °F 29.92 in SW 4.0 mph 6.0 mph 25% 0.00 in
17:50 99.7 °F 57.7 °F 29.92 in West 2.0 mph 6.0 mph 25% 0.00 in
17:55 99.8 °F 59.9 °F 29.92 in WSW 3.0 mph 6.0 mph 27% 0.00 in
18:00 99.8 °F 58.8 °F 29.92 in WSW 7.0 mph 7.0 mph 26% 0.00 in
18:05 99.8 °F 57.7 °F 29.92 in West 5.0 mph 6.0 mph 25% 0.00 in
18:10 99.6 °F 59.7 °F 29.91 in WSW 3.0 mph 7.0 mph 27% 0.00 in
18:15 99.4 °F 60.6 °F 29.91 in SW 4.0 mph 6.0 mph 28% 0.00 in
18:20 99.5 °F 59.6 °F 29.91 in SSW 3.0 mph 8.0 mph 27% 0.00 in
18:25 99.6 °F 61.7 °F 29.91 in SSW 6.0 mph 6.0 mph 29% 0.00 in
18:30 99.2 °F 60.4 °F 29.91 in SW 4.0 mph 8.0 mph 28% 0.00 in
18:35 99.1 °F 60.3 °F 29.91 in SW 6.0 mph 6.0 mph 28% 0.00 in
18:40 99.3 °F 60.5 °F 29.91 in SSW 4.0 mph 6.0 mph 28% 0.00 in
18:45 99.2 °F 61.4 °F 29.91 in SW 6.0 mph 8.0 mph 29% 0.00 in
18:50 99.0 °F 61.2 °F 29.91 in SSE 3.0 mph 5.0 mph 29% 0.00 in
18:55 98.9 °F 61.1 °F 29.91 in SE 3.0 mph 7.0 mph 29% 0.00 in
19:00 98.7 °F 61.0 °F 29.91 in SSW 5.0 mph 9.0 mph 29% 0.00 in
19:05 98.5 °F 60.8 °F 29.91 in SW 5.0 mph 9.0 mph 29% 0.00 in
19:10 98.4 °F 60.7 °F 29.91 in SW 3.0 mph 6.0 mph 29% 0.00 in
19:15 98.4 °F 60.7 °F 29.91 in SW 6.0 mph 7.0 mph 29% 0.00 in
19:20 97.9 °F 60.3 °F 29.91 in SW 4.0 mph 9.0 mph 29% 0.00 in
19:25 97.7 °F 61.0 °F 29.91 in SSW 4.0 mph 5.0 mph 30% 0.00 in
19:30 97.6 °F 61.9 °F 29.91 in SW 4.0 mph 7.0 mph 31% 0.00 in
19:35 97.2 °F 61.5 °F 29.91 in SW 4.0 mph 5.0 mph 31% 0.00 in
19:40 97.0 °F 62.3 °F 29.91 in SW 2.0 mph 5.0 mph 32% 0.00 in
19:46 96.7 °F 62.0 °F 29.91 in South 3.0 mph 5.0 mph 32% 0.00 in
19:51 96.4 °F 62.6 °F 29.91 in SSE 2.0 mph 6.0 mph 33% 0.00 in
19:56 96.1 °F 61.5 °F 29.91 in SSW 4.0 mph 5.0 mph 32% 0.00 in
20:01 95.8 °F 61.2 °F 29.91 in SW 3.0 mph 5.0 mph 32% 0.00 in
20:06 95.4 °F 61.8 °F 29.91 in SW 3.0 mph 4.0 mph 33% 0.00 in
20:11 94.9 °F 62.2 °F 29.91 in SW 2.0 mph 3.0 mph 34% 0.00 in
20:16 94.6 °F 62.7 °F 29.91 in WSW 1.0 mph 2.0 mph 35% 0.00 in
20:21 94.3 °F 63.3 °F 29.91 in SW 2.0 mph 2.0 mph 36% 0.00 in
20:26 93.8 °F 63.6 °F 29.91 in SW 2.0 mph 3.0 mph 37% 0.00 in
20:31 93.2 °F 63.1 °F 29.92 in SW 1.0 mph 1.0 mph 37% 0.00 in
20:36 92.9 °F 62.0 °F 29.92 in Calm   2.0 mph 36% 0.00 in
20:41 92.4 °F 62.4 °F 29.92 in SW 1.0 mph 2.0 mph 37% 0.00 in
20:46 91.6 °F 62.4 °F 29.92 in SW 1.0 mph 2.0 mph 38% 0.00 in
20:51 90.9 °F 62.5 °F 29.92 in SSW 2.0 mph 3.0 mph 39% 0.00 in
20:56 90.2 °F 62.6 °F 29.92 in Calm   1.0 mph 40% 0.00 in
21:01 89.5 °F 62.0 °F 29.92 in SW 1.0 mph 1.0 mph 40% 0.00 in
21:06 88.9 °F 62.2 °F 29.92 in Calm   1.0 mph 41% 0.00 in
21:11 88.2 °F 62.2 °F 29.92 in Calm     42% 0.00 in
21:16 87.6 °F 61.7 °F 29.92 in Calm     42% 0.00 in
21:21 87.1 °F 61.9 °F 29.92 in Calm     43% 0.00 in
21:26 86.2 °F 61.8 °F 29.92 in Calm     44% 0.00 in
21:31 85.1 °F 62.0 °F 29.92 in Calm     46% 0.00 in
21:36 84.5 °F 62.1 °F 29.92 in Calm     47% 0.00 in
21:41 84.3 °F 61.9 °F 29.92 in Calm     47% 0.00 in
21:46 83.9 °F 61.5 °F 29.92 in Calm     47% 0.00 in
21:51 83.3 °F 61.6 °F 29.92 in Calm     48% 0.00 in
21:56 82.9 °F 61.8 °F 29.92 in Calm     49% 0.00 in
22:01 82.3 °F 61.2 °F 29.92 in Calm     49% 0.00 in
22:06 81.9 °F 61.5 °F 29.93 in Calm     50% 0.00 in
22:11 82.3 °F 61.8 °F 29.93 in Calm   1.0 mph 50% 0.00 in
22:16 82.7 °F 61.6 °F 29.93 in Calm     49% 0.00 in
22:21 82.5 °F 61.4 °F 29.93 in Calm     49% 0.00 in
22:26 81.8 °F 61.4 °F 29.93 in Calm     50% 0.00 in
22:31 81.0 °F 61.2 °F 29.93 in Calm     51% 0.00 in
22:36 80.2 °F 62.1 °F 29.93 in Calm     54% 0.00 in
22:41 80.1 °F 61.4 °F 29.93 in Calm     53% 0.00 in
22:46 80.0 °F 61.3 °F 29.93 in Calm     53% 0.00 in
22:51 79.4 °F 61.3 °F 29.93 in Calm     54% 0.00 in
22:56 79.4 °F 61.3 °F 29.93 in Calm     54% 0.00 in
23:01 79.9 °F 61.8 °F 29.93 in Calm     54% 0.00 in
23:06 80.1 °F 61.4 °F 29.93 in Calm     53% 0.00 in
23:11 80.3 °F 61.6 °F 29.93 in Calm     53% 0.00 in
23:16 80.2 °F 61.5 °F 29.93 in Calm     53% 0.00 in
23:21 79.9 °F 61.3 °F 29.93 in Calm     53% 0.00 in
23:26 79.9 °F 61.3 °F 29.93 in Calm     53% 0.00 in
23:31 79.6 °F 61.0 °F 29.93 in Calm     53% 0.00 in
23:36 79.3 °F 61.2 °F 29.93 in Calm     54% 0.00 in
23:42 79.3 °F 61.2 °F 29.93 in Calm     54% 0.00 in
23:47 79.2 °F 61.7 °F 29.93 in Calm     55% 0.00 in
23:52 78.9 °F 61.4 °F 29.93 in Calm   1.0 mph 55% 0.00 in
23:57 79.0 °F 61.5 °F 29.93 in Calm   1.0 mph 55% 0.00 in
Compliments of Weather Underground